Time;durP1;ratioP1;P1;durP2;ratioP2;P2;SDS_P1;SDS_P2;PMS_P1;PMS_P2;Temp;Humidity;BMP_temperature;BMP_pressure;BME280_temperature;BME280_humidity;BME280_pressure;Samples;Min_cycle;Max_cycle;Signal;HPM_P1;HPM_P2
2022/09/12 00:01:25;;;;;;;5.75;5.25;;;18.50;82.90;;;;;;5096458;28;20211;-89
2022/09/12 00:03:57;;;;;;;5.68;5.18;;;18.40;83.30;;;;;;5093812;28;20176;-89
2022/09/12 00:06:26;;;;;;;5.80;5.30;;;18.50;82.80;;;;;;5096477;28;20175;-89
2022/09/12 00:08:58;;;;;;;5.70;5.22;;;18.40;82.40;;;;;;5088142;28;20210;-90
2022/09/12 00:11:24;;;;;;;5.43;4.93;;;18.40;82.70;;;;;;5107845;28;20192;-87
2022/09/12 00:13:54;;;;;;;4.95;4.55;;;18.40;83.40;;;;;;5116403;28;20193;-87
2022/09/12 00:16:23;;;;;;;4.68;4.30;;;18.40;82.60;;;;;;5110524;28;20183;-90
2022/09/12 00:18:49;;;;;;;6.22;5.28;;;18.40;82.60;;;;;;5095806;28;20177;-90
2022/09/12 00:21:16;;;;;;;7.22;5.03;;;18.40;82.50;;;;;;5101267;28;20214;-89
2022/09/12 00:23:42;;;;;;;5.03;4.53;;;18.30;82.30;;;;;;5096702;28;20191;-90
2022/09/12 00:26:08;;;;;;;5.55;5.03;;;18.30;81.90;;;;;;5093769;28;20190;-90
2022/09/12 00:28:35;;;;;;;5.13;4.68;;;18.30;82.20;;;;;;5097036;28;20179;-90
2022/09/12 00:31:05;;;;;;;5.45;4.80;;;18.30;82.40;;;;;;5088995;28;20218;-90
2022/09/12 00:33:32;;;;;;;5.65;5.15;;;18.30;83.00;;;;;;5093040;28;20180;-90
2022/09/12 00:35:57;;;;;;;6.72;4.80;;;18.20;83.20;;;;;;5093651;28;20192;-90
2022/09/12 00:38:23;;;;;;;5.18;4.68;;;18.10;83.40;;;;;;5097613;28;20186;-90
2022/09/12 00:40:49;;;;;;;5.43;5.03;;;18.10;83.40;;;;;;5092942;28;20227;-88
2022/09/12 00:43:34;;;;;;;5.90;5.03;;;18.10;83.60;;;;;;5089060;28;20253;-90
2022/09/12 00:46:06;;;;;;;5.13;4.68;;;18.10;82.90;;;;;;5093079;28;20171;-90
2022/09/12 00:48:45;;;;;;;5.03;4.63;;;18.10;82.90;;;;;;5092740;28;20212;-90
2022/09/12 00:51:12;;;;;;;5.82;5.22;;;18.10;83.20;;;;;;5093583;28;20206;-91
2022/09/12 00:53:41;;;;;;;5.55;5.05;;;18.00;83.20;;;;;;5092900;28;20204;-89
2022/09/12 00:56:06;;;;;;;5.68;5.18;;;18.00;83.20;;;;;;5093660;28;20187;-90
2022/09/12 00:58:56;;;;;;;7.35;4.97;;;17.90;83.70;;;;;;5096409;28;20210;-89
2022/09/12 01:01:22;;;;;;;5.63;5.20;;;18.00;83.30;;;;;;5096542;28;20269;-88
2022/09/12 01:03:47;;;;;;;5.43;5.03;;;18.00;83.20;;;;;;5096566;28;20752;-89
2022/09/12 01:06:26;;;;;;;5.65;5.15;;;18.00;82.30;;;;;;5095678;28;20176;-90
2022/09/12 01:08:53;;;;;;;5.78;5.22;;;17.90;82.70;;;;;;5098364;28;20191;-90
2022/09/12 01:11:20;;;;;;;5.40;4.90;;;18.00;83.00;;;;;;5110482;28;20207;-87
2022/09/12 01:13:47;;;;;;;6.43;5.05;;;17.80;83.30;;;;;;5114801;28;20176;-89
2022/09/12 01:16:13;;;;;;;5.50;4.95;;;17.60;83.10;;;;;;5109945;28;20664;-88
2022/09/12 01:18:53;;;;;;;5.53;5.03;;;17.60;84.50;;;;;;5106913;28;20187;-88
2022/09/12 01:21:22;;;;;;;5.53;5.10;;;17.60;84.20;;;;;;5102332;28;20210;-91
2022/09/12 01:24:29;;;;;;;5.82;5.30;;;17.50;84.30;;;;;;5086884;28;20171;-90
2022/09/12 01:27:16;;;;;;;6.63;5.00;;;17.60;85.20;;;;;;5092142;28;20182;-90
2022/09/12 01:30:19;;;;;;;5.38;4.97;;;17.60;85.30;;;;;;5097414;28;20206;-90
2022/09/12 01:32:48;;;;;;;6.07;5.10;;;17.60;85.00;;;;;;5098878;28;20265;-90
2022/09/12 01:35:32;;;;;;;6.15;5.40;;;17.60;84.50;;;;;;5098427;28;20212;-88
2022/09/12 01:38:22;;;;;;;5.15;4.70;;;17.60;84.70;;;;;;5091488;28;20179;-88
2022/09/12 01:40:58;;;;;;;5.53;4.68;;;17.50;83.70;;;;;;5090424;28;20199;-88
2022/09/12 01:43:27;;;;;;;5.32;4.93;;;17.50;84.40;;;;;;5088857;28;20170;-89
2022/09/12 01:46:02;;;;;;;4.70;4.40;;;17.50;84.30;;;;;;5112433;28;20178;-90
2022/09/12 01:48:39;;;;;;;6.38;5.32;;;17.60;84.00;;;;;;5102690;28;20247;-90
2022/09/12 01:51:22;;;;;;;4.88;4.53;;;17.50;83.50;;;;;;5100514;28;20214;-90
2022/09/12 01:53:56;;;;;;;6.25;5.38;;;17.50;83.70;;;;;;5091442;28;20232;-90
2022/09/12 01:56:25;;;;;;;5.35;4.80;;;17.60;83.80;;;;;;5094110;28;20187;-90
2022/09/12 01:59:16;;;;;;;5.70;5.07;;;17.50;83.20;;;;;;5083052;28;20189;-90
2022/09/12 02:02:06;;;;;;;5.75;4.93;;;17.30;82.30;;;;;;5091039;28;20340;-90
2022/09/12 02:04:38;;;;;;;5.55;5.05;;;17.10;85.70;;;;;;5089761;28;20266;-90
2022/09/12 02:07:17;;;;;;;4.95;4.55;;;17.10;85.90;;;;;;5106028;28;20202;-89
2022/09/12 02:10:05;;;;;;;6.63;5.30;;;17.10;85.00;;;;;;5115221;28;20234;-89
2022/09/12 02:12:38;;;;;;;5.57;5.05;;;17.10;85.40;;;;;;5099351;28;20186;-90
2022/09/12 02:15:08;;;;;;;5.75;5.35;;;17.10;85.60;;;;;;5091279;28;20187;-90
2022/09/12 02:17:40;;;;;;;6.00;5.50;;;17.10;84.30;;;;;;5102721;28;20247;-89
2022/09/12 02:20:14;;;;;;;5.72;4.93;;;17.00;84.60;;;;;;5101061;28;20488;-90
2022/09/12 02:22:41;;;;;;;5.35;4.93;;;17.00;85.50;;;;;;5099562;28;20201;-89
2022/09/12 02:25:10;;;;;;;6.43;5.22;;;17.00;85.10;;;;;;5100929;28;20236;-90
2022/09/12 02:27:52;;;;;;;5.57;5.18;;;17.00;84.70;;;;;;5101563;28;20237;-90
2022/09/12 02:30:19;;;;;;;7.32;4.97;;;17.10;84.50;;;;;;5089617;28;20202;-90
2022/09/12 02:33:01;;;;;;;5.57;5.13;;;17.00;83.10;;;;;;5094003;28;20654;-90
2022/09/12 02:35:52;;;;;;;5.72;5.22;;;16.90;84.90;;;;;;5095593;28;20220;-90
2022/09/12 02:38:23;;;;;;;5.70;5.10;;;16.90;85.00;;;;;;5096282;28;20272;-90
2022/09/12 02:40:49;;;;;;;7.07;4.90;;;16.90;84.80;;;;;;5096193;28;20234;-89
2022/09/12 02:43:14;;;;;;;5.25;4.75;;;16.90;85.60;;;;;;5094766;28;20192;-89
2022/09/12 02:45:40;;;;;;;5.35;4.88;;;17.00;85.00;;;;;;5096746;28;20181;-90
2022/09/12 02:48:06;;;;;;;5.47;4.97;;;16.90;85.10;;;;;;5097851;28;20674;-89
2022/09/12 02:50:32;;;;;;;6.05;5.13;;;17.00;84.80;;;;;;5095571;28;20227;-90
2022/09/12 02:53:03;;;;;;;5.05;4.65;;;17.00;84.40;;;;;;5096893;28;20207;-91
2022/09/12 02:55:32;;;;;;;5.88;5.25;;;16.90;84.30;;;;;;5073502;28;20211;-91
2022/09/12 02:57:59;;;;;;;4.60;4.30;;;16.90;84.50;;;;;;5087401;28;20193;-90
2022/09/12 03:00:26;;;;;;;6.07;4.97;;;17.00;84.70;;;;;;5106167;28;20229;-88
2022/09/12 03:03:08;;;;;;;5.53;5.13;;;17.00;84.10;;;;;;5101186;28;20230;-88
2022/09/12 03:05:53;;;;;;;5.72;5.22;;;16.90;84.20;;;;;;5104451;28;20186;-91
2022/09/12 03:08:40;;;;;;;5.50;4.68;;;16.90;84.40;;;;;;5089482;28;20708;-91
2022/09/12 03:11:25;;;;;;;5.68;5.25;;;17.00;84.10;;;;;;5091998;28;20217;-90
2022/09/12 03:14:17;;;;;;;5.75;5.25;;;16.90;84.10;;;;;;5095574;28;20190;-90
2022/09/12 03:17:10;;;;;;;5.93;5.30;;;16.90;83.70;;;;;;5086664;28;20198;-91
2022/09/12 03:20:20;;;;;;;5.82;5.32;;;16.80;83.80;;;;;;5087947;28;20210;-90
2022/09/12 03:23:09;;;;;;;5.95;5.38;;;16.90;83.80;;;;;;5088267;28;20218;-90
2022/09/12 03:25:47;;;;;;;5.30;4.90;;;16.80;83.70;;;;;;5086231;28;20198;-91
2022/09/12 03:28:15;;;;;;;6.60;5.28;;;16.80;84.20;;;;;;5084413;28;20183;-90
2022/09/12 03:30:47;;;;;;;6.13;5.50;;;16.80;84.50;;;;;;5091618;28;20265;-90
2022/09/12 03:33:14;;;;;;;6.10;5.53;;;16.80;84.50;;;;;;5084029;28;20212;-90
2022/09/12 03:35:40;;;;;;;5.95;5.32;;;16.70;83.70;;;;;;5089184;28;20212;-90
2022/09/12 03:38:09;;;;;;;5.80;5.40;;;16.50;85.40;;;;;;5096839;28;20204;-90
2022/09/12 03:40:36;;;;;;;8.45;5.70;;;16.60;85.60;;;;;;5100918;28;20225;-89
2022/09/12 03:43:02;;;;;;;5.40;5.00;;;16.60;85.90;;;;;;5099103;28;20216;-90
2022/09/12 03:45:28;;;;;;;5.93;5.22;;;16.50;85.60;;;;;;5092793;28;20190;-91
2022/09/12 03:47:54;;;;;;;5.50;5.00;;;16.60;85.40;;;;;;5090809;28;20187;-90
2022/09/12 03:50:20;;;;;;;5.45;5.05;;;16.60;84.90;;;;;;5094938;28;20205;-90
2022/09/12 03:52:45;;;;;;;7.13;5.40;;;16.60;85.10;;;;;;5100970;28;20689;-90
2022/09/12 03:55:11;;;;;;;5.93;5.47;;;16.60;85.50;;;;;;5083995;28;20270;-90
2022/09/12 03:57:37;;;;;;;5.13;4.82;;;16.60;85.30;;;;;;5084414;28;20252;-90
2022/09/12 04:00:06;;;;;;;5.53;5.10;;;16.50;85.20;;;;;;5092004;28;20222;-90
2022/09/12 04:02:32;;;;;;;6.13;5.47;;;16.50;85.70;;;;;;5095736;28;20197;-90
2022/09/12 04:04:58;;;;;;;6.05;5.53;;;16.40;84.80;;;;;;5090578;28;20267;-90
2022/09/12 04:07:23;;;;;;;5.43;4.93;;;16.30;85.80;;;;;;5092907;28;20189;-91
2022/09/12 04:09:49;;;;;;;5.68;5.20;;;16.40;85.70;;;;;;5093905;28;20275;-91
2022/09/12 04:12:15;;;;;;;5.47;4.80;;;16.40;85.50;;;;;;5093632;28;20201;-90
2022/09/12 04:14:40;;;;;;;5.65;5.15;;;16.40;84.80;;;;;;5103532;28;20193;-91
2022/09/12 04:17:07;;;;;;;5.30;4.90;;;16.30;84.00;;;;;;5105621;28;20250;-91
2022/09/12 04:19:33;;;;;;;5.30;4.90;;;16.20;84.90;;;;;;5103769;28;20677;-90
2022/09/12 04:21:58;;;;;;;5.55;5.15;;;16.20;85.80;;;;;;5104629;28;20246;-91
2022/09/12 04:24:24;;;;;;;5.60;5.20;;;16.20;86.50;;;;;;5090742;28;20201;-90
2022/09/12 04:26:50;;;;;;;6.40;5.68;;;16.20;85.70;;;;;;5088242;28;20190;-91
2022/09/12 04:29:16;;;;;;;5.88;5.43;;;16.20;85.50;;;;;;5096383;28;20705;-89
2022/09/12 04:31:42;;;;;;;6.65;5.50;;;16.20;86.10;;;;;;5083338;28;20200;-90
2022/09/12 04:34:08;;;;;;;6.05;5.47;;;16.20;85.30;;;;;;5102489;28;20188;-89
2022/09/12 04:36:33;;;;;;;6.32;5.72;;;16.20;85.70;;;;;;5099952;28;20182;-89
2022/09/12 04:39:00;;;;;;;6.25;5.65;;;16.20;85.30;;;;;;5103216;28;20199;-89
2022/09/12 04:41:30;;;;;;;6.18;5.68;;;16.30;84.90;;;;;;5102304;28;20327;-90
2022/09/12 04:44:01;;;;;;;6.40;5.90;;;16.10;85.80;;;;;;5096662;28;20188;-90
2022/09/12 04:46:28;;;;;;;6.72;6.13;;;16.10;86.20;;;;;;5096079;28;20184;-89
2022/09/12 04:48:54;;;;;;;6.18;5.78;;;16.10;85.80;;;;;;5097199;28;20218;-89
2022/09/12 04:51:32;;;;;;;8.45;6.32;;;16.10;86.70;;;;;;5102357;28;20190;-90
2022/09/12 04:54:01;;;;;;;6.07;5.57;;;16.10;85.20;;;;;;5101628;28;20802;-89
2022/09/12 04:56:27;;;;;;;7.28;6.53;;;16.00;86.00;;;;;;5104474;28;20181;-89
2022/09/12 04:58:56;;;;;;;7.83;5.73;;;15.90;85.00;;;;;;5102759;28;20201;-90
2022/09/12 05:01:23;;;;;;;6.23;4.73;;;15.60;86.60;;;;;;5102469;28;20227;-90
2022/09/12 05:03:51;;;;;;;5.97;5.53;;;15.60;88.40;;;;;;5090558;28;20206;-89
2022/09/12 05:06:37;;;;;;;6.60;6.05;;;15.70;87.60;;;;;;5105423;28;20203;-89
2022/09/12 05:09:04;;;;;;;6.07;5.63;;;15.70;87.20;;;;;;5102803;28;20203;-90
2022/09/12 05:11:33;;;;;;;6.50;5.53;;;15.70;87.40;;;;;;5120188;28;20179;-90
2022/09/12 05:13:59;;;;;;;6.20;5.70;;;15.70;87.10;;;;;;5120451;28;20181;-90
2022/09/12 05:16:27;;;;;;;6.67;5.53;;;15.80;86.80;;;;;;5120013;28;20195;-90
2022/09/12 05:18:53;;;;;;;8.57;6.30;;;15.80;86.70;;;;;;5110572;28;20402;-90
2022/09/12 05:21:22;;;;;;;7.90;6.10;;;15.80;86.20;;;;;;5088624;28;20224;-90
2022/09/12 05:23:53;;;;;;;5.40;5.00;;;15.70;87.30;;;;;;5090390;28;20277;-90
2022/09/12 05:26:21;;;;;;;7.77;5.90;;;15.80;87.30;;;;;;5088888;28;20186;-90
2022/09/12 05:28:48;;;;;;;6.28;5.68;;;15.80;87.20;;;;;;5103497;28;20592;-90
2022/09/12 05:31:17;;;;;;;6.95;6.35;;;15.80;87.30;;;;;;5103197;28;20243;-90
2022/09/12 05:33:44;;;;;;;6.37;5.80;;;15.90;87.80;;;;;;5103170;28;20223;-90
2022/09/12 05:36:16;;;;;;;6.97;6.47;;;15.90;88.00;;;;;;5103826;28;20250;-90
2022/09/12 05:38:42;;;;;;;8.57;7.10;;;16.00;89.20;;;;;;5093448;28;20177;-89
2022/09/12 05:41:13;;;;;;;10.73;8.77;;;16.00;88.50;;;;;;5100749;28;20507;-89
2022/09/12 05:43:41;;;;;;;9.23;8.37;;;15.90;89.60;;;;;;5106101;28;20459;-89
2022/09/12 05:46:15;;;;;;;9.20;8.48;;;15.90;90.20;;;;;;5105126;28;20212;-88
2022/09/12 05:48:43;;;;;;;9.83;8.30;;;16.00;90.40;;;;;;5110697;27;20194;-89
2022/09/12 05:51:19;;;;;;;8.80;8.00;;;16.10;90.30;;;;;;5112362;28;20252;-89
2022/09/12 05:53:47;;;;;;;10.97;9.80;;;16.10;89.70;;;;;;5101446;27;20184;-89
2022/09/12 05:56:15;;;;;;;9.60;8.70;;;16.10;90.50;;;;;;5096388;28;20187;-88
2022/09/12 05:58:44;;;;;;;9.63;8.75;;;16.20;90.20;;;;;;5092477;28;20189;-89
2022/09/12 06:01:15;;;;;;;10.80;9.00;;;16.00;90.60;;;;;;5088996;28;20296;-88
2022/09/12 06:03:47;;;;;;;10.57;9.55;;;16.10;91.10;;;;;;5102978;28;20703;-89
2022/09/12 06:06:14;;;;;;;10.43;9.32;;;16.10;91.80;;;;;;5102527;28;20177;-89
2022/09/12 06:08:42;;;;;;;16.15;9.25;;;16.10;91.80;;;;;;5090870;28;20189;-89
2022/09/12 06:11:10;;;;;;;9.82;8.98;;;16.20;91.90;;;;;;5090485;28;20595;-89
2022/09/12 06:13:41;;;;;;;9.88;8.98;;;16.20;91.70;;;;;;5104208;28;20187;-89
2022/09/12 06:16:10;;;;;;;10.32;8.63;;;16.20;92.10;;;;;;5104187;28;20193;-89
2022/09/12 06:18:37;;;;;;;10.13;9.27;;;16.20;92.00;;;;;;5103965;28;20256;-89
2022/09/12 06:21:09;;;;;;;9.77;8.80;;;16.30;92.00;;;;;;5103153;28;20262;-89
2022/09/12 06:23:35;;;;;;;12.27;9.23;;;16.30;92.10;;;;;;5104817;28;20181;-89
2022/09/12 06:26:03;;;;;;;10.65;9.07;;;16.30;91.90;;;;;;5102382;28;20194;-88
2022/09/12 06:28:29;;;;;;;9.52;8.70;;;16.30;92.90;;;;;;5092852;28;20269;-89
2022/09/12 06:31:14;;;;;;;10.18;9.32;;;16.30;93.00;;;;;;5096012;28;20205;-89
2022/09/12 06:33:43;;;;;;;11.13;10.13;;;16.50;92.30;;;;;;5099474;28;20200;-89
2022/09/12 06:36:12;;;;;;;11.87;10.77;;;16.30;92.90;;;;;;5103976;28;20193;-89
2022/09/12 06:38:38;;;;;;;10.27;9.48;;;16.20;93.20;;;;;;5091839;28;20181;-89
2022/09/12 06:41:06;;;;;;;9.65;8.85;;;16.30;93.80;;;;;;5098602;28;20198;-89
2022/09/12 06:43:33;;;;;;;11.38;10.05;;;16.40;93.20;;;;;;5091466;28;20184;-89
2022/09/12 06:46:01;;;;;;;11.32;10.32;;;16.30;92.80;;;;;;5098212;28;20180;-89
2022/09/12 06:48:26;;;;;;;11.23;10.13;;;16.40;93.30;;;;;;5103561;28;20186;-89
2022/09/12 06:50:56;;;;;;;10.57;9.77;;;16.40;93.00;;;;;;5099910;28;20319;-89
2022/09/12 06:53:22;;;;;;;10.43;9.57;;;16.50;93.10;;;;;;5091093;28;20179;-89
2022/09/12 06:55:58;;;;;;;10.70;9.68;;;16.60;92.00;;;;;;5103764;28;20200;-89
2022/09/12 06:58:24;;;;;;;11.15;10.25;;;16.60;91.20;;;;;;5099354;28;20181;-88
2022/09/12 07:00:51;;;;;;;11.07;10.18;;;16.80;91.10;;;;;;5093078;28;20206;-89
2022/09/12 07:03:17;;;;;;;11.68;10.55;;;16.70;91.80;;;;;;5090857;28;20657;-89
2022/09/12 07:05:43;;;;;;;12.23;9.73;;;16.80;92.10;;;;;;5096540;28;20223;-89
2022/09/12 07:08:09;;;;;;;12.75;10.82;;;16.80;91.90;;;;;;5087487;28;20183;-89
2022/09/12 07:10:35;;;;;;;11.85;10.88;;;16.80;92.70;;;;;;5089254;28;20229;-89
2022/09/12 07:13:00;;;;;;;10.93;10.13;;;16.80;93.10;;;;;;5098178;28;20182;-88
2022/09/12 07:15:27;;;;;;;10.90;10.10;;;16.80;93.20;;;;;;5092735;28;20229;-87
2022/09/12 07:17:53;;;;;;;11.65;10.65;;;16.80;92.80;;;;;;5084493;28;20194;-87
2022/09/12 07:20:19;;;;;;;10.73;9.90;;;16.80;93.00;;;;;;5095162;28;20221;-86
2022/09/12 07:22:45;;;;;;;11.15;10.15;;;16.80;94.00;;;;;;5095500;28;20229;-89
2022/09/12 07:25:11;;;;;;;10.27;9.43;;;16.90;94.50;;;;;;5092274;28;20189;-87
2022/09/12 07:27:36;;;;;;;11.27;10.20;;;16.80;94.00;;;;;;5093919;28;20560;-87
2022/09/12 07:30:05;;;;;;;11.30;10.40;;;16.70;94.20;;;;;;5095096;28;20203;-87
2022/09/12 07:32:31;;;;;;;10.97;9.97;;;16.70;94.60;;;;;;5090055;28;20216;-87
2022/09/12 07:34:56;;;;;;;10.50;9.65;;;16.80;95.10;;;;;;5086684;28;20189;-86
2022/09/12 07:37:22;;;;;;;10.80;9.90;;;16.90;95.30;;;;;;5094765;28;20183;-88
2022/09/12 07:39:48;;;;;;;10.20;9.40;;;16.90;95.10;;;;;;5088317;28;20214;-87
2022/09/12 07:42:14;;;;;;;10.90;10.00;;;17.10;95.90;;;;;;5079744;28;20268;-87
2022/09/12 07:44:39;;;;;;;10.18;9.38;;;17.20;94.30;;;;;;5091325;28;20302;-87
2022/09/12 07:47:05;;;;;;;10.68;9.75;;;17.30;94.20;;;;;;5095784;28;20193;-88
2022/09/12 07:49:31;;;;;;;11.10;10.25;;;17.30;92.70;;;;;;5094757;28;20270;-86
2022/09/12 07:51:57;;;;;;;9.93;9.07;;;17.30;92.60;;;;;;5095536;28;20184;-87
2022/09/12 07:54:22;;;;;;;10.15;9.35;;;17.30;92.20;;;;;;5087927;28;20186;-88
2022/09/12 07:56:48;;;;;;;11.15;10.30;;;17.40;93.00;;;;;;5096606;28;20183;-87
2022/09/12 07:59:14;;;;;;;10.70;9.88;;;17.60;92.30;;;;;;5094978;28;20214;-86
2022/09/12 08:01:40;;;;;;;11.98;11.07;;;17.60;91.70;;;;;;5093527;28;20674;-87
2022/09/12 08:04:06;;;;;;;11.90;10.90;;;17.70;93.50;;;;;;5101712;28;20190;-88
2022/09/12 08:06:34;;;;;;;12.00;11.05;;;17.50;94.90;;;;;;5083444;28;20194;-87
2022/09/12 08:09:00;;;;;;;11.82;10.73;;;17.70;94.30;;;;;;5093322;28;20265;-87
2022/09/12 08:11:27;;;;;;;11.15;10.25;;;17.60;93.80;;;;;;5091491;28;20633;-87
2022/09/12 08:13:55;;;;;;;11.02;9.95;;;17.90;92.30;;;;;;5098131;28;20187;-86
2022/09/12 08:16:24;;;;;;;11.05;9.90;;;17.90;91.40;;;;;;5090185;28;20211;-86
2022/09/12 08:18:50;;;;;;;10.85;9.85;;;17.90;90.00;;;;;;5098420;28;20183;-87
2022/09/12 08:21:19;;;;;;;11.02;10.18;;;18.00;91.30;;;;;;5095521;28;20246;-86
2022/09/12 08:23:45;;;;;;;11.38;10.35;;;17.90;91.20;;;;;;5096001;28;20972;-86
2022/09/12 08:26:11;;;;;;;10.13;9.27;;;18.00;92.00;;;;;;5086294;28;20210;-87
2022/09/12 08:28:42;;;;;;;11.40;10.50;;;18.00;91.60;;;;;;5088822;28;20463;-86
2022/09/12 08:31:11;;;;;;;11.18;10.27;;;18.40;90.40;;;;;;5084562;28;20195;-87
2022/09/12 08:33:37;;;;;;;10.40;9.63;;;18.60;89.60;;;;;;5097516;28;20215;-85
2022/09/12 08:36:07;;;;;;;11.20;10.35;;;18.60;88.70;;;;;;5106454;28;20199;-85
2022/09/12 08:38:37;;;;;;;10.20;9.30;;;18.60;90.10;;;;;;5112317;28;20186;-85
2022/09/12 08:41:29;;;;;;;9.90;8.98;;;18.70;88.90;;;;;;5107338;28;20202;-85
2022/09/12 08:44:39;;;;;;;10.82;9.93;;;18.80;89.60;;;;;;5105320;28;20286;-85
2022/09/12 08:47:24;;;;;;;10.20;8.82;;;18.90;88.00;;;;;;5077557;28;20190;-85
2022/09/12 08:50:07;;;;;;;10.18;9.38;;;19.10;87.70;;;;;;5096731;28;20262;-85
2022/09/12 08:52:58;;;;;;;10.75;9.85;;;19.20;88.00;;;;;;5097805;28;20186;-85
2022/09/12 08:55:42;;;;;;;9.77;8.88;;;19.40;83.40;;;;;;5087717;28;20192;-85
2022/09/12 08:58:21;;;;;;;8.98;8.23;;;19.60;83.30;;;;;;5098238;28;20194;-85
2022/09/12 09:00:52;;;;;;;10.55;9.63;;;19.70;82.30;;;;;;5099608;28;20238;-85
2022/09/12 09:03:43;;;;;;;10.32;9.40;;;19.70;83.00;;;;;;5092839;28;20224;-85
2022/09/12 09:06:30;;;;;;;9.88;9.18;;;19.50;83.70;;;;;;5096345;28;20187;-85
2022/09/12 09:09:50;;;;;;;9.52;8.82;;;19.40;84.10;;;;;;5099959;28;20665;-85
2022/09/12 09:12:45;;;;;;;9.32;8.60;;;19.80;82.50;;;;;;5036552;28;20228;-85
2022/09/12 09:15:31;;;;;;;9.07;8.38;;;20.30;80.30;;;;;;5033918;28;20219;-85
2022/09/12 09:18:07;;;;;;;10.35;9.45;;;20.50;78.90;;;;;;5089409;28;20216;-85
2022/09/12 09:20:43;;;;;;;10.07;9.27;;;20.50;79.80;;;;;;5100374;28;20234;-85
2022/09/12 09:23:15;;;;;;;9.55;8.82;;;20.60;80.30;;;;;;5100112;28;20526;-85
2022/09/12 09:26:00;;;;;;;8.95;8.35;;;20.90;79.10;;;;;;5100706;28;20190;-85
2022/09/12 09:28:44;;;;;;;9.85;8.95;;;21.10;78.30;;;;;;5093222;28;20209;-85
2022/09/12 09:31:39;;;;;;;9.68;8.95;;;21.10;79.80;;;;;;5089915;28;20704;-85
2022/09/12 09:34:27;;;;;;;9.20;8.43;;;20.90;79.00;;;;;;5099423;28;20218;-86
2022/09/12 09:37:18;;;;;;;9.25;8.48;;;21.20;80.30;;;;;;5102764;28;20167;-85
2022/09/12 09:40:26;;;;;;;8.27;7.68;;;21.60;76.20;;;;;;5096693;28;20850;-85
2022/09/12 09:43:09;;;;;;;8.48;7.70;;;21.90;72.90;;;;;;5043783;28;20212;-85
2022/09/12 09:45:36;;;;;;;9.15;8.35;;;22.00;72.00;;;;;;5030112;28;20738;-85
2022/09/12 09:48:12;;;;;;;8.90;8.20;;;21.80;71.60;;;;;;5069784;28;20195;-85
2022/09/12 09:50:37;;;;;;;8.73;8.02;;;21.80;74.10;;;;;;5098267;28;20246;-85
2022/09/12 09:53:07;;;;;;;8.73;8.02;;;21.80;71.90;;;;;;5095128;28;20798;-85
2022/09/12 09:55:42;;;;;;;8.70;8.00;;;22.00;70.70;;;;;;5089186;28;20202;-85
2022/09/12 09:58:08;;;;;;;8.25;7.60;;;22.40;69.20;;;;;;5110813;27;20187;-85
2022/09/12 10:00:36;;;;;;;8.27;7.68;;;22.80;67.90;;;;;;5095814;28;20290;-85
2022/09/12 10:03:13;;;;;;;8.13;7.43;;;23.00;66.30;;;;;;5094129;28;20207;-85
2022/09/12 10:05:53;;;;;;;7.55;6.95;;;23.00;64.70;;;;;;5087390;28;20792;-85
2022/09/12 10:08:27;;;;;;;24.55;11.82;;;22.70;65.70;;;;;;5099105;28;20261;-85
2022/09/12 10:11:03;;;;;;;7.80;7.20;;;22.90;65.60;;;;;;5091854;28;20233;-85
2022/09/12 10:13:40;;;;;;;9.27;7.75;;;23.20;63.90;;;;;;5095445;28;20178;-84
2022/09/12 10:16:21;;;;;;;7.95;7.25;;;23.50;65.10;;;;;;5086029;28;20211;-85
2022/09/12 10:18:49;;;;;;;8.02;7.32;;;23.70;66.70;;;;;;5091312;28;20193;-86
2022/09/12 10:21:36;;;;;;;11.20;9.05;;;23.70;65.50;;;;;;5089794;28;20610;-85
2022/09/12 10:24:04;;;;;;;7.60;6.90;;;23.80;61.70;;;;;;5093991;28;20614;-85
2022/09/12 10:26:33;;;;;;;7.85;7.15;;;23.70;61.80;;;;;;5093443;28;20180;-85
2022/09/12 10:29:04;;;;;;;7.40;6.75;;;24.00;60.90;;;;;;5093369;28;20183;-86
2022/09/12 10:31:53;;;;;;;7.47;6.78;;;24.20;59.40;;;;;;5099136;28;20581;-86
2022/09/12 10:34:24;;;;;;;6.88;6.28;;;24.10;57.00;;;;;;5100294;28;20183;-87
2022/09/12 10:36:53;;;;;;;6.38;5.97;;;24.40;56.60;;;;;;5094042;28;20195;-87
2022/09/12 10:39:19;;;;;;;6.93;6.38;;;24.30;58.40;;;;;;5096972;28;20236;-87
2022/09/12 10:41:45;;;;;;;6.90;6.20;;;24.30;59.70;;;;;;5102798;28;20309;-85
2022/09/12 10:44:18;;;;;;;6.47;5.97;;;24.70;57.90;;;;;;5102917;28;20191;-86
2022/09/12 10:46:44;;;;;;;17.77;7.80;;;25.00;55.20;;;;;;5094926;28;20183;-86
2022/09/12 10:49:20;;;;;;;6.28;5.75;;;25.30;55.20;;;;;;5100440;28;20621;-84
2022/09/12 10:51:47;;;;;;;6.70;6.15;;;25.50;55.20;;;;;;5100152;28;20250;-87
2022/09/12 10:54:18;;;;;;;5.93;5.45;;;25.50;52.40;;;;;;5104928;28;20210;-88
2022/09/12 10:56:43;;;;;;;7.13;6.22;;;25.50;53.10;;;;;;5090347;28;20191;-85
2022/09/12 10:59:18;;;;;;;6.40;5.90;;;25.50;53.50;;;;;;5100664;28;20194;-87
2022/09/12 11:01:57;;;;;;;5.82;5.35;;;25.40;52.90;;;;;;5099766;28;20246;-86
2022/09/12 11:04:29;;;;;;;6.18;5.63;;;25.60;53.70;;;;;;5095107;28;20353;-85
2022/09/12 11:07:20;;;;;;;6.38;5.88;;;26.00;52.00;;;;;;5095891;28;20182;-89
2022/09/12 11:10:20;;;;;;;6.07;5.57;;;26.30;49.80;;;;;;5093516;28;20229;-87
2022/09/12 11:13:17;;;;;;;6.70;6.18;;;26.60;50.20;;;;;;5103271;28;20184;-85
2022/09/12 11:16:01;;;;;;;6.15;5.75;;;26.70;49.00;;;;;;5091356;28;20191;-85
2022/09/12 11:18:39;;;;;;;6.40;5.90;;;26.60;49.30;;;;;;5099060;28;20844;-86
2022/09/12 11:21:11;;;;;;;6.43;5.97;;;27.00;49.00;;;;;;5104125;28;20206;-89
2022/09/12 11:23:55;;;;;;;5.63;5.32;;;26.90;46.70;;;;;;5116891;28;20181;-88
2022/09/12 11:26:45;;;;;;;6.40;6.00;;;26.80;47.20;;;;;;5108097;28;20191;-89
2022/09/12 11:29:37;;;;;;;6.50;5.90;;;26.90;47.50;;;;;;5109693;28;20221;-86
2022/09/12 11:32:31;;;;;;;5.85;5.45;;;26.70;47.80;;;;;;5101821;28;20213;-84
2022/09/12 11:35:05;;;;;;;6.10;5.63;;;26.80;46.40;;;;;;5093956;28;20183;-86
2022/09/12 11:37:37;;;;;;;5.70;5.30;;;27.00;47.50;;;;;;5096671;28;20184;-85
2022/09/12 11:40:28;;;;;;;6.20;5.80;;;27.30;47.30;;;;;;5097996;28;20203;-86
2022/09/12 11:43:04;;;;;;;5.90;5.50;;;27.70;45.80;;;;;;5105454;28;20207;-87
2022/09/12 11:45:44;;;;;;;6.13;5.72;;;27.80;44.70;;;;;;5105405;28;20238;-84
2022/09/12 11:48:17;;;;;;;6.25;5.72;;;28.00;45.90;;;;;;5097992;28;20171;-86
2022/09/12 11:50:43;;;;;;;6.53;6.07;;;27.90;44.20;;;;;;5093718;28;20286;-84
2022/09/12 11:53:19;;;;;;;6.03;5.65;;;27.80;45.40;;;;;;5100154;28;20202;-85
2022/09/12 11:56:01;;;;;;;5.93;5.53;;;28.20;44.80;;;;;;5099214;28;20194;-86
2022/09/12 11:58:28;;;;;;;6.05;5.57;;;28.30;44.00;;;;;;5101854;28;20206;-86
2022/09/12 12:01:14;;;;;;;6.07;5.75;;;28.50;42.70;;;;;;5095796;28;20220;-86
2022/09/12 12:03:42;;;;;;;6.65;5.10;;;28.80;42.60;;;;;;5100505;28;20238;-86
2022/09/12 12:06:08;;;;;;;6.22;5.68;;;28.70;42.40;;;;;;5104641;28;20189;-88
2022/09/12 12:08:40;;;;;;;5.72;5.38;;;29.00;42.80;;;;;;5104074;28;20195;-86
2022/09/12 12:11:07;;;;;;;5.22;4.93;;;28.70;41.90;;;;;;5100076;28;20207;-83
2022/09/12 12:13:45;;;;;;;5.25;4.90;;;29.00;41.00;;;;;;5091311;28;20226;-85
2022/09/12 12:16:42;;;;;;;5.70;5.40;;;29.00;39.70;;;;;;5095531;28;20239;-86
2022/09/12 12:19:14;;;;;;;5.50;5.20;;;29.20;40.00;;;;;;5083538;28;20194;-84
2022/09/12 12:21:41;;;;;;;6.15;5.63;;;29.40;39.40;;;;;;5103825;28;20219;-87
2022/09/12 12:24:07;;;;;;;5.82;5.43;;;29.40;40.30;;;;;;5096171;28;20194;-84
2022/09/12 12:26:38;;;;;;;5.15;4.85;;;29.50;39.60;;;;;;5098650;28;20187;-85
2022/09/12 12:29:33;;;;;;;6.07;5.70;;;29.60;39.70;;;;;;5104780;28;20658;-87
2022/09/12 12:32:00;;;;;;;5.50;5.20;;;29.60;38.80;;;;;;5100645;28;20683;-85
2022/09/12 12:34:46;;;;;;;6.60;5.80;;;29.40;38.70;;;;;;5103390;28;20731;-87
2022/09/12 12:37:17;;;;;;;6.30;5.90;;;29.70;38.40;;;;;;5099061;28;20203;-88
2022/09/12 12:39:49;;;;;;;5.90;5.60;;;30.20;37.70;;;;;;5099647;28;20832;-87
2022/09/12 12:42:33;;;;;;;6.10;5.70;;;30.20;37.20;;;;;;5090232;28;20453;-86
2022/09/12 12:45:08;;;;;;;5.97;5.20;;;30.30;36.70;;;;;;5095013;28;20205;-87
2022/09/12 12:47:37;;;;;;;5.70;5.30;;;30.50;36.10;;;;;;5095847;28;20201;-87
2022/09/12 12:50:05;;;;;;;5.63;5.32;;;30.90;35.10;;;;;;5083762;28;20254;-87
2022/09/12 12:52:45;;;;;;;5.68;5.38;;;31.10;34.40;;;;;;5095709;28;20175;-87
2022/09/12 12:55:25;;;;;;;5.90;5.50;;;31.50;33.50;;;;;;5102091;28;20261;-86
2022/09/12 12:57:52;;;;;;;5.72;5.32;;;31.20;35.40;;;;;;5098671;28;20208;-87
2022/09/12 13:00:23;;;;;;;5.38;4.97;;;31.40;35.30;;;;;;5095498;28;20199;-88
2022/09/12 13:03:27;;;;;;;5.55;5.25;;;31.30;34.90;;;;;;5117148;28;20210;-88
2022/09/12 13:06:06;;;;;;;5.55;5.22;;;31.40;34.50;;;;;;5064019;28;20202;-87
2022/09/12 13:08:39;;;;;;;6.03;5.57;;;31.80;33.90;;;;;;5101911;28;20171;-88
2022/09/12 13:11:15;;;;;;;5.35;5.05;;;32.10;33.70;;;;;;5099860;28;20605;-87
2022/09/12 13:13:57;;;;;;;5.18;4.88;;;31.90;33.40;;;;;;5094455;28;20186;-87